This is the latest recevied weather packets stored in our database for station/object SV2BZQ-2. If no packets are shown the sender has not sent any weather packets the latest 10 day(s).
| Time | Temp. | Humidity | Pressure | Rain* | Wind** | Luminosity | Snow |
|---|---|---|---|---|---|---|---|
| 1777124070 | 25.56° C | 41% | 1011.8 hPa | 0 mm | - | 615 W/m² | - |
| 1777123546 | 25.56° C | 40% | 1011.9 hPa | 0 mm | - | 638 W/m² | - |
| 1777121734 | 25.56° C | 41% | 1012.1 hPa | 0 mm | - | 701 W/m² | - |
| 1777120857 | 25.56° C | 40% | 1012.3 hPa | 0 mm | - | 728 W/m² | - |
| 1777116889 | 25.56° C | 45% | 1012.8 hPa | 0 mm | - | 821 W/m² | - |
| 1777116309 | 25° C | 45% | 1012.9 hPa | 0 mm | - | 828 W/m² | - |
| 1777115214 | 9.44° C | 86% | 1013.3 hPa | 0 mm | - | 0 W/m² | - |
| 1777114425 | 24.44° C | 47% | 1013.2 hPa | 0 mm | - | 853 W/m² | - |
| 1777113256 | 24.44° C | 49% | 1013.4 hPa | 0 mm | - | 853 W/m² | - |
| 1777106943 | 20° C | 61% | 1014 hPa | 0 mm | - | 775 W/m² | - |
| 1777104248 | 18.33° C | 64% | 1014.2 hPa | 0 mm | - | 671 W/m² | - |
| 1777102960 | 17.78° C | 65% | 1014.2 hPa | 0 mm | - | 626 W/m² | - |
| 1777100820 | 15° C | 79% | 1014.3 hPa | 0 mm | - | 510 W/m² | - |
| 1777100614 | 14.44° C | 81% | 1014.3 hPa | 0 mm | - | 499 W/m² | - |
| 1777099746 | 13.33° C | 84% | 1014.4 hPa | 0 mm | - | 439 W/m² | - |
| 1777099311 | 12.78° C | 85% | 1014.4 hPa | 0 mm | - | 410 W/m² | - |
| 1777099064 | 12.78° C | 86% | 1014.3 hPa | 0 mm | - | 397 W/m² | - |
| 1777098511 | 12.22° C | 88% | 1014.4 hPa | 0 mm | - | 366 W/m² | - |
| 1777096759 | 10° C | 87% | 1014.3 hPa | 0 mm | - | 276 W/m² | - |
| 1777091644 | 8.89° C | 86% | 1013.7 hPa | 0 mm | - | 23 W/m² | - |
| 1777089777 | 8.89° C | 86% | 1013.6 hPa | 0 mm | - | 0 W/m² | - |
| 1777089296 | 8.89° C | 86% | 1013.3 hPa | 0 mm | - | 0 W/m² | - |
| 1777088430 | 8.89° C | 86% | 1013.1 hPa | 0 mm | - | 0 W/m² | - |
| 1777088123 | 9.44° C | 86% | 1013.1 hPa | 0 mm | - | 0 W/m² | - |
| 1777085015 | 9.44° C | 86% | 1013.2 hPa | 0 mm | - | 0 W/m² | - |
* Rain latest hour (hover to see other rain measurements)
** Current wind speed in m/s (hover to see current wind gust speed)